Time;durP1;ratioP1;P1;durP2;ratioP2;P2;SDS_P1;SDS_P2;PMS_P1;PMS_P2;Temp;Humidity;BMP_temperature;BMP_pressure;BME280_temperature;BME280_humidity;BME280_pressure;Samples;Min_cycle;Max_cycle;Signal;HPM_P1;HPM_P2
2023/06/28 00:00:15;;;;;;;14.63;5.28;;;13.70;99.90;;;;;;4985575;28;20567;-71
2023/06/28 00:02:42;;;;;;;10.88;5.07;;;13.70;99.90;;;;;;4982244;28;20058;-71
2023/06/28 00:05:09;;;;;;;11.63;5.57;;;13.70;99.90;;;;;;4986352;28;20050;-72
2023/06/28 00:07:35;;;;;;;15.10;5.10;;;13.70;99.90;;;;;;4986206;28;20073;-72
2023/06/28 00:10:05;;;;;;;17.38;5.85;;;13.70;99.90;;;;;;4968435;28;20046;-69
2023/06/28 00:12:31;;;;;;;16.40;5.75;;;13.60;99.90;;;;;;4990916;28;20061;-70
2023/06/28 00:14:58;;;;;;;12.93;5.82;;;13.60;99.90;;;;;;4989912;28;20054;-72
2023/06/28 00:17:27;;;;;;;14.95;5.03;;;13.60;99.90;;;;;;4986067;28;20625;-71
2023/06/28 00:19:54;;;;;;;18.60;5.90;;;13.60;99.90;;;;;;4986774;28;20049;-72
2023/06/28 00:22:22;;;;;;;16.92;5.00;;;13.60;99.90;;;;;;4984773;28;20414;-71
2023/06/28 00:24:47;;;;;;;12.88;5.22;;;13.50;99.90;;;;;;4982211;28;20046;-73
2023/06/28 00:27:13;;;;;;;15.35;5.68;;;13.50;99.90;;;;;;4985275;28;20058;-70
2023/06/28 00:29:39;;;;;;;11.50;5.20;;;13.50;99.90;;;;;;4982556;28;20251;-71
2023/06/28 00:32:05;;;;;;;13.02;5.32;;;13.50;99.90;;;;;;4981322;28;20538;-70
2023/06/28 00:34:30;;;;;;;16.05;5.15;;;13.50;99.90;;;;;;4979583;28;20042;-71
2023/06/28 00:36:56;;;;;;;15.85;5.25;;;13.50;99.90;;;;;;4987161;28;20603;-71
2023/06/28 00:39:22;;;;;;;13.65;5.25;;;13.50;99.90;;;;;;4972757;28;20041;-71
2023/06/28 00:41:47;;;;;;;11.30;5.03;;;13.50;99.90;;;;;;4987322;28;20268;-71
2023/06/28 00:44:13;;;;;;;11.40;5.13;;;13.50;99.90;;;;;;4983735;28;20855;-71
2023/06/28 00:46:39;;;;;;;13.90;5.03;;;13.40;99.90;;;;;;4985567;28;20654;-75
2023/06/28 00:49:05;;;;;;;15.10;5.78;;;13.40;99.90;;;;;;4983972;28;20084;-71
2023/06/28 00:51:32;;;;;;;12.88;5.10;;;13.40;99.90;;;;;;4978804;28;20061;-71
2023/06/28 00:54:00;;;;;;;15.95;4.97;;;13.40;99.90;;;;;;4977454;28;20077;-71
2023/06/28 00:56:27;;;;;;;14.27;4.95;;;13.40;99.90;;;;;;4979502;28;20508;-70
2023/06/28 00:58:53;;;;;;;12.38;4.68;;;13.30;99.90;;;;;;4981790;28;20041;-71
2023/06/28 01:01:19;;;;;;;14.02;5.95;;;13.30;99.90;;;;;;4982103;28;20905;-71
2023/06/28 01:03:45;;;;;;;11.50;5.00;;;13.30;99.90;;;;;;4982436;28;20046;-71
2023/06/28 01:06:12;;;;;;;13.85;5.50;;;13.20;99.90;;;;;;4979678;28;20809;-71
2023/06/28 01:08:41;;;;;;;16.30;5.65;;;13.20;99.90;;;;;;4983053;28;20434;-71
2023/06/28 01:11:08;;;;;;;15.35;5.82;;;13.20;99.90;;;;;;4982903;28;20195;-71
2023/06/28 01:13:35;;;;;;;14.10;5.22;;;13.20;99.90;;;;;;4980134;28;20046;-71
2023/06/28 01:16:02;;;;;;;13.75;5.68;;;13.20;99.90;;;;;;4979107;28;20049;-71
2023/06/28 01:18:29;;;;;;;14.90;5.45;;;13.20;99.90;;;;;;4978300;28;20046;-70
2023/06/28 01:20:55;;;;;;;17.15;5.95;;;13.20;99.90;;;;;;4986352;28;20081;-70
2023/06/28 01:23:27;;;;;;;17.60;5.55;;;13.20;99.90;;;;;;4982902;28;20056;-71
2023/06/28 01:25:55;;;;;;;11.57;5.93;;;13.30;99.90;;;;;;4982051;28;20597;-70
2023/06/28 01:28:21;;;;;;;15.80;5.97;;;13.30;99.90;;;;;;4985865;28;20050;-71
2023/06/28 01:30:52;;;;;;;13.50;5.43;;;13.30;99.90;;;;;;4986993;28;20772;-71
2023/06/28 01:33:18;;;;;;;14.15;5.60;;;13.30;99.90;;;;;;4980746;28;20046;-70
2023/06/28 01:35:45;;;;;;;11.18;5.53;;;13.40;99.90;;;;;;4980757;28;20046;-71
2023/06/28 01:38:13;;;;;;;9.90;5.47;;;13.40;99.90;;;;;;4978874;28;20473;-71
2023/06/28 01:40:40;;;;;;;14.32;5.68;;;13.40;99.90;;;;;;4980559;28;20138;-72
2023/06/28 01:43:07;;;;;;;15.05;5.43;;;13.40;99.90;;;;;;4978243;28;20061;-72
2023/06/28 01:45:33;;;;;;;12.30;6.10;;;13.40;99.90;;;;;;4975576;28;20212;-70
2023/06/28 01:48:00;;;;;;;12.90;6.18;;;13.40;99.90;;;;;;4979526;28;20091;-71
2023/06/28 01:50:29;;;;;;;12.82;5.55;;;13.40;99.90;;;;;;4975968;28;20550;-71
2023/06/28 01:53:02;;;;;;;12.90;5.93;;;13.40;99.90;;;;;;4966734;28;20054;-71
2023/06/28 01:55:29;;;;;;;13.63;5.93;;;13.40;99.90;;;;;;4979401;28;20034;-71
2023/06/28 01:57:56;;;;;;;11.93;5.72;;;13.40;99.90;;;;;;4980306;28;20034;-71
2023/06/28 02:00:22;;;;;;;18.20;5.90;;;13.40;99.90;;;;;;4976058;28;20069;-70
2023/06/28 02:02:47;;;;;;;15.02;6.28;;;13.40;99.90;;;;;;4980658;28;20045;-71
2023/06/28 02:05:13;;;;;;;13.25;5.55;;;13.40;99.90;;;;;;4982805;28;20124;-71
2023/06/28 02:07:39;;;;;;;12.85;5.38;;;13.30;99.90;;;;;;4979794;28;20593;-69
2023/06/28 02:10:05;;;;;;;13.70;6.03;;;13.40;99.90;;;;;;4980960;28;20074;-72
2023/06/28 02:12:31;;;;;;;14.00;5.45;;;13.40;99.90;;;;;;4967461;28;20049;-70
2023/06/28 02:14:57;;;;;;;22.08;6.18;;;13.40;99.90;;;;;;4978748;28;20045;-71
2023/06/28 02:17:23;;;;;;;13.25;5.00;;;13.50;99.90;;;;;;4979228;28;20046;-70
2023/06/28 02:19:49;;;;;;;12.38;5.38;;;13.50;99.90;;;;;;4980887;28;20057;-71
2023/06/28 02:22:15;;;;;;;11.35;5.38;;;13.50;99.90;;;;;;4975177;28;20038;-71
2023/06/28 02:24:42;;;;;;;10.57;4.80;;;13.50;99.90;;;;;;4973369;28;20642;-70
2023/06/28 02:27:10;;;;;;;11.05;4.97;;;13.50;99.90;;;;;;4978360;28;20030;-71
2023/06/28 02:29:37;;;;;;;13.25;5.75;;;13.50;99.90;;;;;;4982786;28;20133;-71
2023/06/28 02:32:03;;;;;;;12.07;5.07;;;13.50;99.90;;;;;;4968544;28;20418;-70
2023/06/28 02:34:29;;;;;;;11.35;5.03;;;13.50;99.90;;;;;;4981331;28;20607;-73
2023/06/28 02:36:55;;;;;;;17.08;5.72;;;13.50;99.90;;;;;;4973435;28;20546;-71
2023/06/28 02:39:21;;;;;;;11.35;4.80;;;13.50;99.90;;;;;;4977712;28;20074;-71
2023/06/28 02:41:47;;;;;;;16.05;5.47;;;13.50;99.90;;;;;;4967436;28;20034;-70
2023/06/28 02:44:12;;;;;;;16.17;6.15;;;13.60;99.90;;;;;;4977618;28;20654;-72
2023/06/28 02:46:38;;;;;;;15.20;5.68;;;13.50;99.90;;;;;;4972946;28;20042;-71
2023/06/28 02:49:05;;;;;;;14.88;5.50;;;13.50;99.90;;;;;;4982148;28;20753;-71
2023/06/28 02:51:31;;;;;;;17.40;6.47;;;13.60;99.90;;;;;;4982709;28;20034;-71
2023/06/28 02:53:57;;;;;;;15.88;6.47;;;13.60;99.90;;;;;;4983853;28;20109;-69
2023/06/28 02:56:23;;;;;;;17.15;6.35;;;13.60;99.90;;;;;;4980655;28;20088;-69
2023/06/28 02:58:49;;;;;;;12.60;5.60;;;13.60;99.90;;;;;;4977895;28;20952;-71
2023/06/28 03:01:15;;;;;;;15.13;6.15;;;13.60;99.90;;;;;;4972834;28;20050;-71
2023/06/28 03:03:41;;;;;;;15.00;5.60;;;13.60;99.90;;;;;;4980835;28;20120;-70
2023/06/28 03:06:07;;;;;;;14.57;5.93;;;13.70;99.90;;;;;;4976713;28;20382;-71
2023/06/28 03:08:33;;;;;;;14.60;6.45;;;13.60;99.90;;;;;;4980855;28;20100;-71
2023/06/28 03:10:59;;;;;;;13.38;5.93;;;13.70;99.90;;;;;;4975067;28;20456;-71
2023/06/28 03:13:25;;;;;;;12.40;5.60;;;13.70;99.90;;;;;;4978830;28;21089;-71
2023/06/28 03:15:50;;;;;;;13.77;5.07;;;13.70;99.90;;;;;;4976149;28;20080;-71
2023/06/28 03:18:16;;;;;;;12.57;5.25;;;13.70;99.90;;;;;;4984010;28;20118;-72
2023/06/28 03:20:42;;;;;;;14.63;5.55;;;13.70;99.90;;;;;;4980145;28;20141;-69
2023/06/28 03:23:08;;;;;;;13.80;5.15;;;13.80;99.90;;;;;;4975155;28;20034;-70
2023/06/28 03:25:34;;;;;;;15.32;5.53;;;13.80;99.90;;;;;;4978933;28;20042;-70
2023/06/28 03:28:00;;;;;;;11.45;5.03;;;13.80;99.90;;;;;;4976444;28;20537;-71
2023/06/28 03:30:26;;;;;;;9.93;4.70;;;13.90;99.90;;;;;;4978094;28;20727;-72
2023/06/28 03:32:51;;;;;;;12.63;5.13;;;13.90;99.90;;;;;;4966714;28;20049;-72
2023/06/28 03:35:17;;;;;;;14.00;4.85;;;13.90;99.90;;;;;;4977588;28;20046;-71
2023/06/28 03:37:53;;;;;;;12.20;4.53;;;14.00;99.90;;;;;;4983134;28;20084;-69
2023/06/28 03:40:19;;;;;;;16.45;5.43;;;14.00;99.90;;;;;;4982741;28;20066;-71
2023/06/28 03:42:45;;;;;;;10.32;3.95;;;14.10;99.90;;;;;;4982090;28;20268;-71
2023/06/28 03:45:11;;;;;;;11.23;4.20;;;14.10;99.90;;;;;;4982003;28;20042;-71
2023/06/28 03:47:37;;;;;;;10.88;3.78;;;14.10;99.90;;;;;;4978498;28;20764;-72
2023/06/28 03:50:03;;;;;;;12.45;3.88;;;14.10;99.90;;;;;;4967668;28;20561;-71
2023/06/28 03:52:28;;;;;;;12.60;4.00;;;14.10;99.90;;;;;;4982051;28;20042;-72
2023/06/28 03:54:54;;;;;;;12.80;4.07;;;14.20;99.90;;;;;;4976658;28;20049;-70
2023/06/28 03:57:23;;;;;;;11.60;3.47;;;14.20;99.90;;;;;;4981928;28;20049;-71
2023/06/28 03:59:48;;;;;;;9.95;3.47;;;14.30;99.90;;;;;;4983633;28;20084;-72
2023/06/28 04:02:15;;;;;;;9.82;3.47;;;14.30;99.90;;;;;;4956090;28;20129;-70
2023/06/28 04:04:41;;;;;;;9.60;3.40;;;14.40;99.90;;;;;;4978303;28;20081;-70
2023/06/28 04:07:07;;;;;;;7.72;3.38;;;14.40;99.90;;;;;;4981637;28;20658;-70
2023/06/28 04:09:33;;;;;;;10.68;3.40;;;14.40;99.90;;;;;;4973246;28;20046;-71
2023/06/28 04:11:58;;;;;;;8.15;3.40;;;14.50;99.90;;;;;;4977432;28;20842;-71
2023/06/28 04:14:24;;;;;;;11.90;3.10;;;14.60;99.90;;;;;;4982330;28;20061;-71
2023/06/28 04:16:53;;;;;;;12.20;3.17;;;14.60;99.90;;;;;;4980093;28;20042;-71
2023/06/28 04:19:19;;;;;;;11.30;3.30;;;14.60;99.90;;;;;;4956123;28;21197;-70
2023/06/28 04:21:45;;;;;;;13.90;3.85;;;14.70;99.90;;;;;;4979957;28;20054;-70
2023/06/28 04:24:11;;;;;;;13.75;4.00;;;14.80;99.90;;;;;;4981777;28;20041;-70
2023/06/28 04:26:37;;;;;;;12.88;4.00;;;14.80;99.90;;;;;;4979848;28;20104;-69
2023/06/28 04:29:03;;;;;;;13.30;4.43;;;14.80;99.90;;;;;;4977080;28;20053;-72
2023/06/28 04:31:29;;;;;;;9.77;4.32;;;14.80;99.90;;;;;;4977423;28;20584;-70
2023/06/28 04:33:55;;;;;;;10.85;4.72;;;14.80;99.90;;;;;;4978560;28;20041;-72
2023/06/28 04:36:21;;;;;;;15.02;4.95;;;14.90;99.90;;;;;;4982649;28;20050;-70
2023/06/28 04:38:52;;;;;;;12.27;4.47;;;14.90;99.90;;;;;;4980770;28;20065;-72
2023/06/28 04:41:19;;;;;;;9.68;4.72;;;14.90;99.90;;;;;;4964883;28;20054;-71
2023/06/28 04:43:45;;;;;;;12.82;4.88;;;14.80;99.90;;;;;;4965357;28;20103;-71
2023/06/28 04:46:11;;;;;;;10.57;4.95;;;14.90;99.90;;;;;;4987084;28;20029;-70
2023/06/28 04:48:42;;;;;;;15.07;4.88;;;14.80;99.90;;;;;;4980406;28;20132;-69
2023/06/28 04:51:08;;;;;;;10.82;4.93;;;14.80;99.90;;;;;;4990921;28;20741;-71
2023/06/28 04:53:34;;;;;;;11.95;4.88;;;14.90;99.90;;;;;;4985781;28;20081;-71
2023/06/28 04:56:00;;;;;;;9.75;4.53;;;14.90;99.90;;;;;;4986992;28;20038;-70
2023/06/28 04:58:27;;;;;;;9.68;4.47;;;14.90;99.90;;;;;;4986980;28;20442;-71
2023/06/28 05:00:56;;;;;;;12.50;4.28;;;14.90;99.90;;;;;;4985057;28;20073;-71
2023/06/28 05:03:26;;;;;;;16.95;5.25;;;15.00;99.90;;;;;;4990050;28;20440;-70
2023/06/28 05:05:53;;;;;;;13.82;4.82;;;15.00;99.90;;;;;;4988112;28;20046;-70
2023/06/28 05:08:19;;;;;;;12.18;4.53;;;15.00;99.90;;;;;;4983458;28;20046;-71
2023/06/28 05:10:45;;;;;;;11.38;3.80;;;15.10;99.90;;;;;;4985915;28;20500;-71
2023/06/28 05:13:10;;;;;;;12.35;4.35;;;15.10;99.90;;;;;;4987317;28;20034;-70
2023/06/28 05:15:36;;;;;;;7.25;3.80;;;15.10;99.90;;;;;;4982141;28;20157;-70
2023/06/28 05:18:03;;;;;;;5.88;3.00;;;15.10;99.90;;;;;;4961023;28;20859;-71
2023/06/28 05:20:29;;;;;;;7.95;3.70;;;15.10;99.90;;;;;;4985644;28;20136;-70
2023/06/28 05:23:15;;;;;;;7.50;2.97;;;15.10;99.90;;;;;;4984096;28;20053;-75
2023/06/28 05:25:42;;;;;;;7.53;2.83;;;15.20;99.90;;;;;;4976065;28;20563;-71
2023/06/28 05:28:10;;;;;;;7.40;3.25;;;15.20;99.90;;;;;;4967509;28;20638;-71
2023/06/28 05:30:36;;;;;;;14.25;4.07;;;15.30;99.90;;;;;;4962583;28;20050;-72
2023/06/28 05:33:02;;;;;;;8.57;3.47;;;15.30;99.90;;;;;;4972074;28;20053;-72
2023/06/28 05:35:35;;;;;;;9.48;3.42;;;15.40;99.90;;;;;;4983577;28;20054;-71
2023/06/28 05:38:02;;;;;;;8.80;3.00;;;15.40;99.90;;;;;;4985661;28;20042;-71
2023/06/28 05:40:29;;;;;;;6.75;2.58;;;15.30;99.90;;;;;;4977858;28;20049;-73
2023/06/28 05:42:55;;;;;;;8.30;2.65;;;15.40;99.90;;;;;;4979778;28;20140;-70
2023/06/28 05:45:25;;;;;;;8.00;2.95;;;15.40;99.90;;;;;;4974519;28;20054;-72
2023/06/28 05:47:51;;;;;;;9.48;2.90;;;15.50;99.90;;;;;;4975947;28;20030;-71
2023/06/28 05:50:17;;;;;;;8.27;2.85;;;15.50;99.90;;;;;;4976651;28;20118;-72
2023/06/28 05:52:46;;;;;;;7.63;2.80;;;15.60;99.90;;;;;;4979314;28;20709;-71
2023/06/28 05:55:12;;;;;;;8.07;2.95;;;15.60;99.40;;;;;;4974846;28;20771;-71
2023/06/28 05:57:39;;;;;;;7.90;3.28;;;15.60;93.20;;;;;;4978847;28;20600;-71
2023/06/28 06:00:05;;;;;;;9.27;2.72;;;15.70;83.30;;;;;;4980577;28;20037;-72
2023/06/28 06:02:32;;;;;;;5.57;2.63;;;15.70;70.70;;;;;;4980169;28;20645;-71
2023/06/28 06:05:01;;;;;;;6.78;2.78;;;15.70;69.40;;;;;;4981820;28;20046;-71
2023/06/28 06:07:27;;;;;;;8.32;2.90;;;15.70;56.40;;;;;;4979613;28;20089;-72
2023/06/28 06:09:54;;;;;;;6.47;2.28;;;15.80;42.10;;;;;;4980198;28;20045;-71
2023/06/28 06:12:20;;;;;;;6.88;2.35;;;15.90;17.40;;;;;;4978498;28;20740;-71
2023/06/28 06:14:47;;;;;;;5.47;2.55;;;15.90;22.00;;;;;;4982515;28;20042;-72
2023/06/28 06:17:13;;;;;;;6.70;2.38;;;16.00;8.10;;;;;;4980680;28;20069;-72
2023/06/28 06:19:38;;;;;;;7.65;2.47;;;16.00;1.00;;;;;;4984821;28;20085;-71
2023/06/28 06:22:05;;;;;;;5.07;2.58;;;16.10;1.00;;;;;;4977524;28;20026;-70
2023/06/28 06:24:30;;;;;;;5.32;2.40;;;16.10;1.00;;;;;;4984332;28;20173;-70
2023/06/28 06:26:57;;;;;;;6.15;2.58;;;16.10;1.00;;;;;;4979161;28;20117;-72
2023/06/28 06:29:23;;;;;;;7.63;2.50;;;16.20;1.00;;;;;;4989615;28;20049;-71
2023/06/28 06:31:48;;;;;;;6.07;2.53;;;16.10;1.00;;;;;;4981318;28;20744;-71
2023/06/28 06:34:14;;;;;;;7.43;2.65;;;16.20;1.00;;;;;;4980259;28;20537;-71
2023/06/28 06:36:43;;;;;;;6.28;2.75;;;16.30;1.00;;;;;;4973428;28;20133;-71
2023/06/28 06:39:09;;;;;;;6.00;1.83;;;16.30;1.00;;;;;;4973058;28;20482;-71
2023/06/28 06:41:35;;;;;;;7.15;2.28;;;16.40;1.00;;;;;;4982351;28;20662;-70
2023/06/28 06:44:00;;;;;;;6.65;1.92;;;16.50;1.00;;;;;;4986926;28;20042;-71
2023/06/28 06:46:26;;;;;;;6.10;2.15;;;16.50;1.00;;;;;;4980407;28;20042;-72
2023/06/28 06:48:52;;;;;;;5.47;1.65;;;16.50;1.00;;;;;;4981798;28;20549;-72
2023/06/28 06:51:18;;;;;;;5.80;1.95;;;16.60;1.00;;;;;;4975799;28;20088;-71
2023/06/28 06:53:43;;;;;;;6.40;1.60;;;16.70;1.00;;;;;;4985481;28;20093;-71
2023/06/28 06:56:10;;;;;;;4.82;1.50;;;16.80;99.90;;;;;;4973275;28;20053;-70
2023/06/28 06:58:36;;;;;;;4.80;1.60;;;16.80;99.90;;;;;;4980737;28;20042;-72
2023/06/28 07:01:02;;;;;;;6.05;1.58;;;16.80;99.90;;;;;;4980331;28;20042;-72
2023/06/28 07:03:28;;;;;;;5.75;1.83;;;16.80;99.90;;;;;;4974881;28;20042;-71
2023/06/28 07:05:53;;;;;;;7.28;1.85;;;16.80;99.90;;;;;;4980621;28;20049;-71
2023/06/28 07:08:19;;;;;;;5.88;1.92;;;16.90;99.90;;;;;;4978880;28;20129;-72
2023/06/28 07:10:45;;;;;;;6.60;1.65;;;16.90;99.90;;;;;;4971724;28;20292;-72
2023/06/28 07:13:11;;;;;;;7.47;2.15;;;17.00;99.90;;;;;;4973086;28;20567;-70
2023/06/28 07:15:36;;;;;;;4.30;1.50;;;17.10;99.90;;;;;;4957239;28;20446;-71
2023/06/28 07:18:03;;;;;;;4.90;1.38;;;17.10;99.90;;;;;;4979744;28;20050;-73
2023/06/28 07:20:29;;;;;;;5.07;1.70;;;17.20;99.90;;;;;;4974188;28;20077;-71
2023/06/28 07:22:55;;;;;;;4.72;1.30;;;17.20;99.90;;;;;;4977752;28;20124;-71
2023/06/28 07:25:20;;;;;;;5.35;1.35;;;17.10;99.90;;;;;;4980930;28;20038;-71
2023/06/28 07:27:47;;;;;;;7.05;1.90;;;17.20;99.90;;;;;;4979446;28;20061;-71
2023/06/28 07:30:13;;;;;;;7.22;1.67;;;17.40;99.90;;;;;;4961836;28;20080;-71
2023/06/28 07:32:39;;;;;;;5.80;1.67;;;17.40;99.90;;;;;;4971931;28;20093;-71
2023/06/28 07:35:05;;;;;;;5.60;2.10;;;17.50;99.90;;;;;;4979463;28;20054;-71
2023/06/28 07:37:31;;;;;;;6.40;2.35;;;17.50;99.90;;;;;;4976109;28;20053;-71
2023/06/28 07:39:59;;;;;;;3.30;1.50;;;17.60;99.90;;;;;;4978719;28;20039;-72
2023/06/28 07:42:26;;;;;;;4.78;2.05;;;17.60;99.90;;;;;;4978600;28;20481;-71
2023/06/28 07:44:52;;;;;;;6.63;2.03;;;17.60;99.90;;;;;;4980030;28;20077;-71
2023/06/28 07:47:18;;;;;;;6.90;2.13;;;17.60;99.90;;;;;;4976385;28;20185;-71
2023/06/28 07:49:44;;;;;;;8.63;2.50;;;17.60;99.90;;;;;;4976037;28;20046;-71
2023/06/28 07:52:10;;;;;;;8.50;2.92;;;17.50;99.90;;;;;;4978018;28;20047;-72
2023/06/28 07:54:36;;;;;;;7.45;3.08;;;17.40;99.90;;;;;;4978255;28;20058;-71
2023/06/28 07:57:03;;;;;;;6.00;3.03;;;17.50;99.90;;;;;;4984496;28;20470;-71
2023/06/28 07:59:29;;;;;;;12.38;3.80;;;17.50;99.90;;;;;;4980673;28;20035;-72
2023/06/28 08:01:54;;;;;;;6.38;3.28;;;17.60;99.90;;;;;;4979493;28;20096;-71
2023/06/28 08:04:20;;;;;;;6.35;3.83;;;17.80;99.90;;;;;;4976797;28;20042;-70
2023/06/28 08:06:47;;;;;;;7.32;4.13;;;17.90;99.90;;;;;;4978498;28;20054;-71
2023/06/28 08:09:12;;;;;;;7.78;4.47;;;17.80;99.90;;;;;;4980584;28;20038;-72
2023/06/28 08:11:39;;;;;;;9.27;4.55;;;17.90;99.90;;;;;;4977498;28;20050;-71
2023/06/28 08:14:05;;;;;;;7.25;4.45;;;17.90;99.90;;;;;;4985279;28;20053;-71
2023/06/28 08:16:31;;;;;;;7.47;4.32;;;18.00;99.90;;;;;;4984073;28;20133;-71
2023/06/28 08:18:57;;;;;;;8.70;4.35;;;18.00;99.90;;;;;;4978456;28;20034;-71
2023/06/28 08:21:23;;;;;;;8.48;4.15;;;17.90;99.90;;;;;;4975686;28;20440;-70
2023/06/28 08:23:48;;;;;;;9.32;4.45;;;18.00;99.90;;;;;;4984353;28;20098;-71
2023/06/28 08:26:15;;;;;;;9.45;4.50;;;17.90;99.90;;;;;;4976640;28;20970;-70
2023/06/28 08:28:41;;;;;;;9.32;4.22;;;18.00;99.90;;;;;;4988570;28;20049;-71
2023/06/28 08:31:07;;;;;;;10.55;4.38;;;18.00;99.90;;;;;;4982248;28;20053;-70
2023/06/28 08:33:32;;;;;;;11.43;4.35;;;18.00;99.90;;;;;;4979188;28;20049;-71
2023/06/28 08:35:58;;;;;;;8.20;4.30;;;18.10;99.90;;;;;;4983023;28;20510;-70
2023/06/28 08:38:24;;;;;;;8.45;4.30;;;18.10;99.90;;;;;;4984218;28;20046;-70
2023/06/28 08:40:51;;;;;;;11.00;5.88;;;17.90;99.90;;;;;;4985901;28;20080;-71
2023/06/28 08:43:19;;;;;;;9.93;5.10;;;17.80;99.90;;;;;;4984065;28;20512;-69
2023/06/28 08:45:45;;;;;;;7.35;4.80;;;17.80;1.00;;;;;;4962518;28;20049;-70
2023/06/28 08:48:13;;;;;;;11.52;5.40;;;17.60;1.00;;;;;;4982067;28;20029;-71
2023/06/28 08:50:40;;;;;;;10.75;5.50;;;17.70;1.00;;;;;;4982747;28;20144;-69
2023/06/28 08:53:09;;;;;;;10.98;6.10;;;17.80;1.00;;;;;;4989899;28;20058;-69
2023/06/28 08:55:38;;;;;;;10.60;5.55;;;17.80;1.00;;;;;;4972578;28;20515;-70
2023/06/28 08:58:06;;;;;;;9.52;5.80;;;18.00;1.00;;;;;;4979545;28;20410;-70
2023/06/28 09:00:32;;;;;;;10.43;5.55;;;18.00;1.00;;;;;;4979499;28;20046;-71
2023/06/28 09:02:58;;;;;;;8.35;5.60;;;17.90;1.00;;;;;;4979150;28;20049;-71
2023/06/28 09:05:24;;;;;;;10.73;5.57;;;17.90;1.00;;;;;;4982056;28;20486;-69
2023/06/28 09:07:54;;;;;;;10.45;6.30;;;17.80;1.00;;;;;;4978655;28;20049;-70
2023/06/28 09:10:20;;;;;;;10.65;6.50;;;17.80;1.00;;;;;;4984333;28;20046;-70
2023/06/28 09:12:47;;;;;;;12.07;6.03;;;17.70;1.00;;;;;;4983714;28;20435;-70
2023/06/28 09:15:15;;;;;;;8.00;6.18;;;17.60;10.60;;;;;;4980585;28;20092;-70
2023/06/28 09:17:41;;;;;;;8.43;5.85;;;17.50;12.90;;;;;;4983552;28;20041;-70
2023/06/28 09:20:21;;;;;;;10.45;6.38;;;17.60;75.00;;;;;;4990711;28;20046;-71
2023/06/28 09:23:08;;;;;;;11.80;6.70;;;17.70;32.20;;;;;;4979430;28;20502;-69
2023/06/28 09:25:34;;;;;;;10.45;6.40;;;17.70;48.90;;;;;;4978202;28;20061;-71
2023/06/28 09:28:00;;;;;;;9.90;6.68;;;17.70;95.60;;;;;;4982196;28;20484;-72
2023/06/28 09:30:27;;;;;;;11.07;6.15;;;17.90;99.90;;;;;;4979566;28;20193;-70
2023/06/28 09:32:52;;;;;;;8.93;5.70;;;18.00;99.90;;;;;;4979502;28;20045;-71
2023/06/28 09:35:20;;;;;;;10.55;5.72;;;18.00;99.90;;;;;;4961372;28;20050;-71
2023/06/28 09:37:53;;;;;;;8.30;6.15;;;18.20;99.90;;;;;;4979512;28;20038;-70
2023/06/28 09:40:19;;;;;;;10.48;6.82;;;18.30;99.90;;;;;;4983740;28;20053;-70
2023/06/28 09:42:46;;;;;;;10.48;6.22;;;18.40;96.80;;;;;;4981977;28;20041;-74
2023/06/28 09:45:27;;;;;;;9.48;6.38;;;18.60;84.00;;;;;;4976556;28;20076;-70
2023/06/28 09:47:59;;;;;;;6.47;4.90;;;18.70;1.00;;;;;;4982068;28;20088;-72
2023/06/28 09:50:45;;;;;;;9.47;5.07;;;18.90;1.00;;;;;;4989760;28;20038;-70
2023/06/28 09:53:13;;;;;;;7.68;5.43;;;18.90;1.00;;;;;;4978523;28;20347;-71
2023/06/28 09:55:43;;;;;;;8.63;5.75;;;19.10;1.00;;;;;;4985366;28;20138;-71
2023/06/28 09:58:13;;;;;;;10.13;5.80;;;19.10;1.00;;;;;;4983359;28;20050;-70
2023/06/28 10:00:41;;;;;;;9.55;6.00;;;18.80;1.00;;;;;;4982331;28;20068;-71
2023/06/28 10:03:08;;;;;;;8.65;6.05;;;18.70;1.00;;;;;;4981198;28;20401;-73
2023/06/28 10:05:36;;;;;;;9.82;5.60;;;18.60;1.00;;;;;;4971202;28;20061;-71
2023/06/28 10:08:05;;;;;;;11.95;6.30;;;18.60;1.00;;;;;;4981074;28;20045;-71
2023/06/28 10:10:33;;;;;;;8.60;6.60;;;18.60;1.00;;;;;;4980793;28;20664;-71
2023/06/28 10:13:00;;;;;;;9.10;5.90;;;18.60;1.00;;;;;;4981209;28;20237;-71
2023/06/28 10:15:34;;;;;;;10.23;6.20;;;18.70;1.00;;;;;;4980972;28;20049;-70
2023/06/28 10:18:00;;;;;;;7.47;5.82;;;18.70;1.00;;;;;;4984274;28;20076;-71
2023/06/28 10:20:26;;;;;;;10.00;5.90;;;18.70;1.00;;;;;;4980881;28;20050;-71
2023/06/28 10:22:54;;;;;;;10.18;6.82;;;18.60;1.00;;;;;;4979963;28;20034;-72
2023/06/28 10:25:22;;;;;;;11.77;6.88;;;18.50;1.00;;;;;;4983119;28;20082;-71
2023/06/28 10:27:49;;;;;;;10.23;6.72;;;18.40;1.00;;;;;;4982215;28;20391;-70
2023/06/28 10:30:15;;;;;;;8.40;6.38;;;18.30;13.60;;;;;;4981560;28;20452;-70
2023/06/28 10:32:43;;;;;;;9.02;6.57;;;18.30;48.10;;;;;;4979181;28;20558;-70
2023/06/28 10:35:10;;;;;;;8.65;6.20;;;18.30;52.70;;;;;;4979439;28;20053;-71
2023/06/28 10:37:36;;;;;;;9.80;6.30;;;18.30;91.00;;;;;;4979354;28;20037;-71
2023/06/28 10:40:04;;;;;;;8.85;6.75;;;18.20;96.90;;;;;;4970832;28;20042;-72
2023/06/28 10:42:38;;;;;;;9.82;6.60;;;18.30;99.90;;;;;;4980638;28;20485;-71
2023/06/28 10:45:05;;;;;;;10.75;6.28;;;18.40;99.90;;;;;;4970488;28;20287;-71
2023/06/28 10:47:33;;;;;;;9.75;7.35;;;18.40;99.90;;;;;;4981144;28;20068;-72
2023/06/28 10:50:11;;;;;;;9.32;7.15;;;18.40;99.90;;;;;;4983516;28;20042;-69
2023/06/28 10:52:47;;;;;;;10.20;6.28;;;18.40;99.90;;;;;;4983141;28;20069;-70
2023/06/28 10:55:18;;;;;;;8.15;6.28;;;18.40;99.90;;;;;;4978203;28;20050;-71
2023/06/28 10:57:44;;;;;;;9.55;7.28;;;18.30;99.90;;;;;;4981587;28;20333;-71
2023/06/28 11:00:36;;;;;;;11.23;7.00;;;18.30;99.90;;;;;;4984283;28;20705;-70
2023/06/28 11:03:04;;;;;;;8.70;7.03;;;18.30;99.90;;;;;;4976363;28;20050;-75
2023/06/28 11:05:40;;;;;;;10.40;7.35;;;18.10;99.90;;;;;;4975774;28;20058;-70
2023/06/28 11:08:14;;;;;;;9.13;8.23;;;18.10;99.90;;;;;;4979534;28;20172;-72
2023/06/28 11:10:42;;;;;;;9.07;8.15;;;18.00;99.90;;;;;;4979996;28;20398;-70
2023/06/28 11:13:09;;;;;;;10.73;9.35;;;18.00;99.90;;;;;;4978601;28;20042;-72
2023/06/28 11:15:36;;;;;;;11.98;9.27;;;18.20;99.90;;;;;;4977503;28;20418;-71
2023/06/28 11:18:16;;;;;;;10.15;8.90;;;18.30;99.90;;;;;;4981894;28;20663;-71
2023/06/28 11:20:56;;;;;;;10.13;9.10;;;18.40;99.90;;;;;;4977342;28;20128;-70
2023/06/28 11:23:38;;;;;;;9.55;8.45;;;18.40;99.90;;;;;;4983352;28;20046;-71
2023/06/28 11:26:12;;;;;;;12.20;9.73;;;18.40;99.90;;;;;;4980766;28;20034;-71
2023/06/28 11:28:48;;;;;;;11.25;10.10;;;18.50;99.90;;;;;;4979425;28;20061;-71
2023/06/28 11:31:21;;;;;;;13.63;10.50;;;18.50;99.90;;;;;;4980652;28;20093;-71
2023/06/28 11:33:48;;;;;;;13.77;10.60;;;18.50;99.90;;;;;;4982192;28;20045;-70
2023/06/28 11:36:14;;;;;;;12.27;10.88;;;18.30;99.90;;;;;;4978928;28;20580;-72
2023/06/28 11:38:45;;;;;;;14.10;11.15;;;18.30;99.90;;;;;;4975130;28;20046;-71
2023/06/28 11:41:14;;;;;;;14.52;12.02;;;18.30;99.90;;;;;;4978063;28;20296;-70
2023/06/28 11:43:41;;;;;;;14.27;11.65;;;18.20;99.90;;;;;;4979920;28;20084;-71
2023/06/28 11:46:07;;;;;;;12.57;11.27;;;18.30;99.90;;;;;;4983714;28;20097;-69
2023/06/28 11:48:33;;;;;;;13.68;12.18;;;18.30;99.90;;;;;;4982677;28;20529;-71
2023/06/28 11:51:01;;;;;;;15.98;13.13;;;18.30;99.90;;;;;;4986105;28;20097;-70
2023/06/28 11:53:29;;;;;;;15.63;13.60;;;18.10;99.90;;;;;;4937680;28;1346792;-70
2023/06/28 11:55:55;;;;;;;20.33;14.85;;;18.10;99.90;;;;;;4984039;28;20309;-70
2023/06/28 11:58:29;;;;;;;20.15;14.48;;;17.90;99.90;;;;;;4975617;28;20054;-71
2023/06/28 12:00:54;;;;;;;23.65;16.33;;;17.90;99.90;;;;;;4981856;28;20402;-69
2023/06/28 12:03:30;;;;;;;21.73;14.60;;;17.80;99.90;;;;;;4984594;28;20043;-71
2023/06/28 12:05:57;;;;;;;23.85;15.73;;;17.60;99.90;;;;;;4983982;28;20065;-69
2023/06/28 12:08:23;;;;;;;23.90;17.63;;;17.50;99.90;;;;;;4985748;28;20065;-70
2023/06/28 12:10:48;;;;;;;26.90;17.73;;;17.40;99.90;;;;;;4983216;28;20149;-69
2023/06/28 12:13:22;;;;;;;24.88;17.77;;;17.30;1.00;;;;;;4984469;28;20038;-70
2023/06/28 12:15:48;;;;;;;;;;;17.30;51.10;;;;;;4985956;28;20047;-70
2023/06/28 12:18:14;;;;;;;29.02;18.67;;;17.20;28.20;;;;;;4983631;28;19932;-71
2023/06/28 12:20:39;;;;;;;24.75;19.10;;;17.10;1.00;;;;;;4975001;28;20429;-71
2023/06/28 12:23:12;;;;;;;27.83;20.10;;;17.20;67.40;;;;;;4981212;28;20250;-69
2023/06/28 12:25:42;;;;;;;25.42;19.20;;;17.20;99.90;;;;;;4983891;28;20516;-69
2023/06/28 12:28:11;;;;;;;28.55;22.63;;;17.20;99.90;;;;;;4987429;28;20084;-71
2023/06/28 12:30:37;;;;;;;32.05;23.00;;;17.20;99.90;;;;;;4985327;28;20034;-71
2023/06/28 12:33:08;;;;;;;31.85;24.25;;;17.20;99.90;;;;;;4984168;28;20560;-72
2023/06/28 12:35:34;;;;;;;31.52;21.35;;;17.30;99.90;;;;;;4981361;28;20049;-70
2023/06/28 12:38:03;;;;;;;27.27;21.08;;;17.40;99.90;;;;;;4973940;28;20054;-71
2023/06/28 12:40:32;;;;;;;29.88;22.10;;;17.40;99.90;;;;;;4980725;28;20050;-73